APL New Jersey — A8NM6 — position and weather

sailwx.info

Track history (hours):
 
Tides and Currents Weather Stations Pressure Air Temp Water Temp Dewpoint Dewpoint Depression Visibility Wind Speed Wind Dir Waves Ship Positions

APL New Jersey

Last reported at 2016-Jul-24 20:25 UTC. Time now 2016-Jul-25 04:21 UTC.
Position N 29°56' E 121°52'.

Length 293 m; draft 10.8 m.

Type: Cargo ship. MMSI: 636013522.

Date/timePositionNaut miles runAvg speedWind from/ knotsBaromVisibWave heightAir tempDewpointWater temp
2016-Jul-24 20:25N 29°56' E 121°52'0 0.0
2016-Jul-24 19:20N 29°56' E 121°52'1 1.0
2016-Jul-24 18:33N 29°57' E 121°53'4 3.7
2016-Jul-24 17:33N 29°58' E 121°57'1111.3
2016-Jul-24 16:33N 29°55' E 122°10'1111.5
2016-Jul-24 15:33N 29°46' E 122°18'9 8.7
2016-Jul-24 14:31N 29°44' E 122°28'0 0.1
2016-Jul-24 13:25N 29°44' E 122°28'0 0.1
2016-Jul-24 12:31N 29°44' E 122°28'0 0.1
2016-Jul-24 11:25N 29°44' E 122°28'0 0.0
2016-Jul-24 10:13N 29°44' E 122°28'0 0.1
2016-Jul-24 08:19N 29°44' E 122°28'0 0.1
2016-Jul-24 07:07N 29°44' E 122°28'0 0.2
2016-Jul-24 06:31N 29°44' E 122°28'0 0.1
2016-Jul-24 04:31N 29°44' E 122°28'0 0.0
2016-Jul-24 03:31N 29°44' E 122°28'0 0.1
2016-Jul-24 02:31N 29°44' E 122°28'0 0.1
2016-Jul-24 01:25N 29°44' E 122°28'0 0.0
2016-Jul-24 00:31N 29°44' E 122°28'0 0.2
2016-Jul-23 23:31N 29°44' E 122°28'0 0.0
2016-Jul-23 22:25N 29°44' E 122°28'0 0.1
2016-Jul-23 21:31N 29°44' E 122°28'0 0.0
2016-Jul-23 20:31N 29°44' E 122°28'0 0.1
2016-Jul-23 19:34N 29°44' E 122°28'8 7.4
2016-Jul-23 18:29N 29°43' E 122°37'1211.9
2016-Jul-23 17:31N 29°50' E 122°47'1412.2
2016-Jul-23 16:23N 30°01' E 122°56'2411.6
2016-Jul-23 14:17N 30°25' E 123°04'3512.6
2016-Jul-23 11:31N 30°58' E 122°54'1313.8
2016-Jul-23 10:33N 31°06' E 122°40'1313.1
2016-Jul-23 09:33N 31°06' E 122°25'1513.7
2016-Jul-23 08:26N 31°12' E 122°08'1314.8
2016-Jul-23 07:33N 31°16' E 121°54'1312.9
2016-Jul-23 06:33N 31°21' E 121°40'5 2.3
2016-Jul-23 04:22N 31°23' E 121°34'0 0.0
2016-Jul-23 03:31N 31°23' E 121°34'0 0.0
2016-Jul-23 02:16N 31°23' E 121°34'0 0.0
2016-Jul-23 01:28N 31°23' E 121°34'0 0.0
2016-Jul-23 00:22N 31°23' E 121°34'0 0.0
2016-Jul-22 23:22N 31°23' E 121°34'0 0.0
2016-Jul-22 22:22N 31°23' E 121°34'0 0.0
2016-Jul-22 21:28N 31°23' E 121°34'0 0.0
2016-Jul-22 20:28N 31°23' E 121°34'0 0.0
2016-Jul-22 19:28N 31°23' E 121°34'0 0.0
2016-Jul-22 18:16N 31°23' E 121°34'0 0.0
2016-Jul-22 17:28N 31°23' E 121°34'0 0.0
2016-Jul-22 14:28N 31°23' E 121°34'0 0.0
2016-Jul-22 13:22N 31°23' E 121°34'0 0.0
2016-Jul-22 12:16N 31°23' E 121°34'0 0.0
2016-Jul-22 11:25N 31°23' E 121°34'0 0.0
2016-Jul-22 10:25N 31°23' E 121°34'0 0.0
2016-Jul-22 09:22N 31°23' E 121°34'0 0.0
2016-Jul-22 08:28N 31°23' E 121°34'0 0.0
2016-Jul-22 07:28N 31°23' E 121°34'3 1.1
2016-Jul-22 04:33N 31°22' E 121°38'1010.3
2016-Jul-22 03:33N 31°17' E 121°49'1211.4
2016-Jul-22 02:29N 31°14' E 122°03'16 8.2
2016-Jul-22 00:33N 31°06' E 122°19'3812.5
2016-Jul-21 21:32N 31°09' E 123°03'2317.2
2016-Jul-21 20:10N 31°21' E 123°26'2716.3
2016-Jul-21 18:29N 31°35' E 123°54'  
Track history (hours):
 
Tides and Currents Weather Stations Pressure Air Temp Water Temp Dewpoint Dewpoint Depression Visibility Wind Speed Wind Dir Waves Ship Positions

APL New Jersey

Last reported at 2016-Jul-24 20:25 UTC. Time now 2016-Jul-25 04:21 UTC.
Position N 29°56' E 121°52'.

Length 293 m; draft 10.8 m.

Type: Cargo ship. MMSI: 636013522.

Date/timePositionNaut miles runAvg speedWind from/ knotsBaromVisibWave heightAir tempDewpointWater temp
2016-Jul-24 20:25N 29°56' E 121°52'0 0.0
2016-Jul-24 19:20N 29°56' E 121°52'1 1.0
2016-Jul-24 18:33N 29°57' E 121°53'4 3.7
2016-Jul-24 17:33N 29°58' E 121°57'1111.3
2016-Jul-24 16:33N 29°55' E 122°10'1111.5
2016-Jul-24 15:33N 29°46' E 122°18'9 8.7
2016-Jul-24 14:31N 29°44' E 122°28'0 0.1
2016-Jul-24 13:25N 29°44' E 122°28'0 0.1
2016-Jul-24 12:31N 29°44' E 122°28'0 0.1
2016-Jul-24 11:25N 29°44' E 122°28'0 0.0
2016-Jul-24 10:13N 29°44' E 122°28'0 0.1
2016-Jul-24 08:19N 29°44' E 122°28'0 0.1
2016-Jul-24 07:07N 29°44' E 122°28'0 0.2
2016-Jul-24 06:31N 29°44' E 122°28'0 0.1
2016-Jul-24 04:31N 29°44' E 122°28'0 0.0
2016-Jul-24 03:31N 29°44' E 122°28'0 0.1
2016-Jul-24 02:31N 29°44' E 122°28'0 0.1
2016-Jul-24 01:25N 29°44' E 122°28'0 0.0
2016-Jul-24 00:31N 29°44' E 122°28'0 0.2
2016-Jul-23 23:31N 29°44' E 122°28'0 0.0
2016-Jul-23 22:25N 29°44' E 122°28'0 0.1
2016-Jul-23 21:31N 29°44' E 122°28'0 0.0
2016-Jul-23 20:31N 29°44' E 122°28'0 0.1
2016-Jul-23 19:34N 29°44' E 122°28'8 7.4
2016-Jul-23 18:29N 29°43' E 122°37'1211.9
2016-Jul-23 17:31N 29°50' E 122°47'1412.2
2016-Jul-23 16:23N 30°01' E 122°56'2411.6
2016-Jul-23 14:17N 30°25' E 123°04'3512.6
2016-Jul-23 11:31N 30°58' E 122°54'1313.8
2016-Jul-23 10:33N 31°06' E 122°40'1313.1
2016-Jul-23 09:33N 31°06' E 122°25'1513.7
2016-Jul-23 08:26N 31°12' E 122°08'1314.8
2016-Jul-23 07:33N 31°16' E 121°54'1312.9
2016-Jul-23 06:33N 31°21' E 121°40'5 2.3
2016-Jul-23 04:22N 31°23' E 121°34'0 0.0
2016-Jul-23 03:31N 31°23' E 121°34'0 0.0
2016-Jul-23 02:16N 31°23' E 121°34'0 0.0
2016-Jul-23 01:28N 31°23' E 121°34'0 0.0
2016-Jul-23 00:22N 31°23' E 121°34'0 0.0
2016-Jul-22 23:22N 31°23' E 121°34'0 0.0
2016-Jul-22 22:22N 31°23' E 121°34'0 0.0
2016-Jul-22 21:28N 31°23' E 121°34'0 0.0
2016-Jul-22 20:28N 31°23' E 121°34'0 0.0
2016-Jul-22 19:28N 31°23' E 121°34'0 0.0
2016-Jul-22 18:16N 31°23' E 121°34'0 0.0
2016-Jul-22 17:28N 31°23' E 121°34'0 0.0
2016-Jul-22 14:28N 31°23' E 121°34'0 0.0
2016-Jul-22 13:22N 31°23' E 121°34'0 0.0
2016-Jul-22 12:16N 31°23' E 121°34'0 0.0
2016-Jul-22 11:25N 31°23' E 121°34'0 0.0
2016-Jul-22 10:25N 31°23' E 121°34'0 0.0
2016-Jul-22 09:22N 31°23' E 121°34'0 0.0
2016-Jul-22 08:28N 31°23' E 121°34'0 0.0
2016-Jul-22 07:28N 31°23' E 121°34'3 1.1
2016-Jul-22 04:33N 31°22' E 121°38'1010.3
2016-Jul-22 03:33N 31°17' E 121°49'1211.4
2016-Jul-22 02:29N 31°14' E 122°03'16 8.2
2016-Jul-22 00:33N 31°06' E 122°19'3812.5
2016-Jul-21 21:32N 31°09' E 123°03'2317.2
2016-Jul-21 20:10N 31°21' E 123°26'2716.3
2016-Jul-21 18:29N 31°35' E 123°54'  

Dump ship's entire track history